Time;durP1;ratioP1;P1;durP2;ratioP2;P2;SDS_P1;SDS_P2;PMS_P1;PMS_P2;Temp;Humidity;BMP_temperature;BMP_pressure;BME280_temperature;BME280_humidity;BME280_pressure;Samples;Min_cycle;Max_cycle;Signal;HPM_P1;HPM_P2
2021/03/29 00:01:11;;;;;;;2.93;2.27;;;2.50;99.90;;;3.20;40.33;95630.56;5040442;28;20212;-80
2021/03/29 00:03:39;;;;;;;2.60;2.20;;;2.40;99.90;;;3.21;40.81;95628.75;5006666;28;20169;-80
2021/03/29 00:06:07;;;;;;;3.33;2.27;;;2.50;99.90;;;3.14;40.01;95633.06;5020542;28;20684;-81
2021/03/29 00:08:35;;;;;;;5.00;2.87;;;2.50;99.90;;;3.18;40.49;95629.09;5042735;28;20173;-80
2021/03/29 00:11:11;;;;;;;9.07;2.70;;;2.50;99.90;;;3.04;40.49;95628.88;5042366;28;20164;-80
2021/03/29 00:13:45;;;;;;;3.83;2.20;;;2.50;99.90;;;3.02;40.47;95627.44;5022910;28;20232;-81
2021/03/29 00:16:24;;;;;;;3.63;2.70;;;2.50;99.90;;;3.07;40.68;95622.47;5006861;28;20178;-80
2021/03/29 00:19:17;;;;;;;4.57;2.30;;;2.50;99.90;;;3.08;40.96;95632.78;5022271;28;20301;-80
2021/03/29 00:22:05;;;;;;;4.60;2.70;;;2.50;99.90;;;3.10;40.43;95619.50;5038725;28;20532;-81
2021/03/29 00:24:34;;;;;;;3.47;2.47;;;2.50;99.90;;;3.00;41.79;95616.31;5022933;28;20214;-81
2021/03/29 00:27:09;;;;;;;3.00;2.70;;;2.40;99.90;;;2.90;41.59;95624.41;5033759;28;20188;-80
2021/03/29 00:29:46;;;;;;;3.13;2.33;;;2.30;99.90;;;2.83;40.93;95626.09;5050892;28;20194;-80
2021/03/29 00:32:20;;;;;;;3.53;2.47;;;2.30;99.90;;;2.82;41.09;95637.53;5024776;28;20702;-81
2021/03/29 00:35:15;;;;;;;3.63;2.47;;;2.20;99.90;;;2.76;41.14;95625.16;5039597;28;20166;-80
2021/03/29 00:37:56;;;;;;;2.97;2.47;;;2.20;99.90;;;2.85;41.43;95628.53;4973888;28;20201;-81
2021/03/29 00:40:24;;;;;;;4.27;2.67;;;2.20;99.90;;;2.71;41.10;95624.06;4958446;29;20188;-81
2021/03/29 00:43:26;;;;;;;3.27;2.47;;;2.10;99.90;;;2.76;42.24;95630.38;4959034;29;20207;-80
2021/03/29 00:45:55;;;;;;;3.63;2.60;;;2.10;99.90;;;2.74;41.31;95621.91;4905385;29;20223;-81
2021/03/29 00:48:52;;;;;;;4.13;3.20;;;2.10;99.90;;;2.67;41.99;95628.81;4905762;29;20203;-80
2021/03/29 00:51:25;;;;;;;4.97;2.40;;;2.10;99.90;;;2.68;41.36;95630.44;4878164;29;20198;-80
2021/03/29 00:53:58;;;;;;;4.10;2.70;;;2.00;99.90;;;2.57;42.46;95629.03;4867916;29;20736;-80
2021/03/29 00:56:26;;;;;;;3.17;2.47;;;2.00;99.90;;;2.55;41.50;95627.59;4920576;29;20267;-81
2021/03/29 00:58:54;;;;;;;3.70;2.40;;;2.00;99.90;;;2.47;41.64;95628.44;4920247;29;20318;-80
2021/03/29 01:01:28;;;;;;;3.90;2.57;;;1.90;99.90;;;2.56;41.69;95619.56;4889255;29;20199;-80
2021/03/29 01:04:23;;;;;;;4.63;2.60;;;1.90;99.90;;;2.49;42.76;95634.31;4923010;29;20200;-81
2021/03/29 01:07:20;;;;;;;4.53;3.30;;;1.90;99.90;;;2.62;42.17;95644.22;4884815;29;20187;-80
2021/03/29 01:09:48;;;;;;;3.63;2.40;;;2.00;99.90;;;2.53;42.53;95619.09;4842086;29;20243;-81
2021/03/29 01:12:21;;;;;;;4.13;2.47;;;1.90;99.90;;;2.55;42.17;95617.13;4815730;29;20253;-80
2021/03/29 01:14:49;;;;;;;3.70;2.77;;;1.90;99.90;;;2.58;42.15;95601.06;4856168;29;20205;-80
2021/03/29 01:17:33;;;;;;;3.83;2.40;;;1.90;99.90;;;2.48;42.11;95616.19;4854165;29;20195;-81
2021/03/29 01:20:05;;;;;;;4.43;2.73;;;1.90;99.90;;;2.43;42.69;95610.63;4869182;29;20295;-80
2021/03/29 01:22:42;;;;;;;3.87;2.53;;;1.80;99.90;;;2.42;42.31;95609.00;4975454;28;20191;-80
2021/03/29 01:25:38;;;;;;;2.67;2.20;;;1.90;99.90;;;2.49;42.59;95604.72;4962102;28;20195;-80
2021/03/29 01:28:13;;;;;;;2.83;1.90;;;1.90;99.90;;;2.56;42.66;95608.28;4960471;28;20197;-80
2021/03/29 01:30:44;;;;;;;4.20;2.30;;;2.00;99.90;;;2.65;42.92;95599.41;4922429;29;20214;-80
2021/03/29 01:33:13;;;;;;;4.13;2.10;;;2.10;99.90;;;2.66;42.86;95598.38;4903450;29;20623;-80
2021/03/29 01:35:55;;;;;;;6.07;2.50;;;2.10;99.90;;;2.65;42.87;95591.53;4888399;29;20296;-81
2021/03/29 01:38:31;;;;;;;4.83;2.27;;;2.20;99.90;;;2.60;43.17;95580.78;4905233;29;20205;-81
2021/03/29 01:41:01;;;;;;;3.37;2.13;;;2.30;99.90;;;2.67;43.37;95594.78;4889566;29;20194;-81
2021/03/29 01:43:59;;;;;;;3.07;2.17;;;2.30;99.90;;;2.76;43.61;95591.13;4900299;29;20192;-80
2021/03/29 01:46:37;;;;;;;3.60;2.50;;;2.40;99.90;;;2.68;43.17;95590.38;4917645;29;20193;-80
2021/03/29 01:49:13;;;;;;;5.13;2.87;;;2.20;99.90;;;2.59;43.30;95595.66;4920418;29;20179;-80
2021/03/29 01:51:39;;;;;;;3.87;2.23;;;2.10;99.90;;;2.43;43.61;95592.31;4888909;29;20221;-81
2021/03/29 01:54:06;;;;;;;4.50;2.37;;;1.90;99.90;;;2.39;43.38;95593.66;4888409;29;20179;-80
2021/03/29 01:56:32;;;;;;;2.60;2.40;;;1.80;99.90;;;2.31;43.49;95591.91;4917021;29;20209;-81
2021/03/29 01:58:59;;;;;;;4.27;2.57;;;1.80;99.90;;;2.23;43.64;95591.13;4891987;29;20205;-80
2021/03/29 02:01:45;;;;;;;2.93;2.63;;;1.70;99.90;;;2.27;43.53;95601.09;4940706;28;20195;-80
2021/03/29 02:04:21;;;;;;;3.07;2.47;;;1.70;99.90;;;2.26;43.43;95588.97;4965136;28;20206;-80
2021/03/29 02:06:55;;;;;;;3.73;2.30;;;1.70;99.90;;;2.23;43.58;95601.59;4949707;28;20199;-80
2021/03/29 02:09:39;;;;;;;4.60;2.57;;;1.70;99.90;;;2.13;43.27;95595.75;4965222;28;20189;-80
2021/03/29 02:12:23;;;;;;;4.17;2.83;;;1.60;99.90;;;2.18;43.39;95606.53;4964647;28;20273;-80
2021/03/29 02:14:58;;;;;;;4.13;2.70;;;1.50;99.90;;;2.23;43.73;95606.81;4949059;28;20508;-80
2021/03/29 02:17:37;;;;;;;2.83;2.17;;;1.60;99.90;;;2.17;43.83;95610.13;4965178;28;20192;-80
2021/03/29 02:20:23;;;;;;;3.63;2.40;;;1.50;99.90;;;2.20;43.85;95612.38;4964771;28;20263;-81
2021/03/29 02:22:54;;;;;;;3.37;2.33;;;1.50;99.90;;;2.14;44.29;95603.44;5005032;28;20208;-80
2021/03/29 02:25:29;;;;;;;3.07;2.10;;;1.60;99.90;;;2.09;44.26;95608.34;5045057;28;20176;-80
2021/03/29 02:28:00;;;;;;;2.67;2.20;;;1.50;99.90;;;2.11;44.47;95611.63;5059963;28;20175;-80
2021/03/29 02:30:42;;;;;;;4.03;2.37;;;1.50;99.90;;;2.12;44.09;95609.81;5044389;28;20210;-80
2021/03/29 02:33:18;;;;;;;3.53;2.10;;;1.50;99.90;;;2.20;44.10;95602.75;5043032;28;20217;-80
2021/03/29 02:35:48;;;;;;;4.43;2.07;;;1.70;99.90;;;2.27;44.21;95611.53;5044062;28;20165;-81
2021/03/29 02:38:18;;;;;;;2.80;1.60;;;1.70;99.90;;;2.29;44.39;95611.34;5057470;28;20179;-81
2021/03/29 02:40:56;;;;;;;3.97;2.10;;;1.80;99.90;;;2.37;44.48;95614.75;5043916;28;20163;-81
2021/03/29 02:43:23;;;;;;;2.33;1.70;;;1.80;99.90;;;2.38;44.07;95603.31;5075075;28;20169;-81
2021/03/29 02:46:00;;;;;;;4.03;1.80;;;1.90;99.90;;;2.46;44.59;95615.53;5060409;28;20188;-81
2021/03/29 02:48:34;;;;;;;2.40;2.20;;;2.00;99.90;;;2.48;44.18;95611.78;5061063;28;20180;-81
2021/03/29 02:51:27;;;;;;;1.93;1.47;;;2.00;99.90;;;2.41;44.54;95618.66;5028372;28;20254;-81
2021/03/29 02:54:04;;;;;;;3.67;2.20;;;1.90;99.90;;;2.34;44.14;95617.72;4980983;28;20189;-80
2021/03/29 02:56:41;;;;;;;3.80;2.07;;;1.80;99.90;;;2.22;45.02;95613.03;4984066;28;20244;-81
2021/03/29 02:59:15;;;;;;;2.13;1.80;;;1.80;99.90;;;2.23;44.06;95615.47;4980764;28;20347;-80
2021/03/29 03:01:43;;;;;;;2.80;2.10;;;1.80;99.90;;;2.15;45.23;95619.94;4988056;28;20179;-79
2021/03/29 03:04:44;;;;;;;4.20;2.20;;;1.70;99.90;;;2.26;45.23;95627.41;4984339;28;20318;-80
2021/03/29 03:07:19;;;;;;;2.77;1.90;;;1.70;99.90;;;2.17;44.67;95613.56;4888675;29;20253;-80
2021/03/29 03:09:47;;;;;;;3.63;2.20;;;1.70;99.90;;;2.24;44.74;95619.75;4873293;29;20214;-80
2021/03/29 03:12:16;;;;;;;3.43;2.10;;;1.70;99.90;;;2.06;45.00;95608.69;4906132;29;20617;-80
2021/03/29 03:14:53;;;;;;;2.63;2.00;;;1.60;99.90;;;2.10;45.35;95622.25;4922049;29;20198;-80
2021/03/29 03:17:21;;;;;;;3.97;1.97;;;1.70;99.90;;;2.14;45.19;95615.69;4906204;29;20680;-80
2021/03/29 03:19:56;;;;;;;2.63;1.83;;;1.60;99.90;;;2.21;45.04;95614.03;4906505;29;20210;-80
2021/03/29 03:22:38;;;;;;;2.57;1.70;;;1.80;99.90;;;2.17;44.71;95610.94;4893536;29;20670;-80
2021/03/29 03:25:30;;;;;;;3.30;1.90;;;1.70;99.90;;;2.12;45.26;95615.84;4876912;29;20210;-80
2021/03/29 03:28:07;;;;;;;2.80;2.10;;;1.70;99.90;;;2.08;45.11;95617.19;4907011;29;20197;-80
2021/03/29 03:30:39;;;;;;;3.00;2.23;;;1.60;99.90;;;2.02;45.16;95605.59;4951270;28;20199;-81
2021/03/29 03:33:10;;;;;;;3.47;2.07;;;1.60;99.90;;;2.08;45.13;95623.22;4981540;28;20593;-81
2021/03/29 03:35:47;;;;;;;5.70;2.30;;;1.60;99.90;;;1.97;44.86;95621.00;4949257;28;20199;-80
2021/03/29 03:38:25;;;;;;;2.73;1.90;;;1.50;99.90;;;1.95;45.65;95622.13;4963756;28;21003;-80
2021/03/29 03:41:06;;;;;;;4.63;2.40;;;1.40;99.90;;;2.02;45.41;95623.09;4963648;28;20595;-81
2021/03/29 03:43:42;;;;;;;3.23;2.20;;;1.50;99.90;;;2.06;45.49;95619.16;5025529;28;20196;-80
2021/03/29 03:46:21;;;;;;;3.97;2.27;;;1.60;99.90;;;1.99;45.79;95621.63;5005638;28;20292;-80
2021/03/29 03:48:48;;;;;;;3.50;2.00;;;1.50;99.90;;;2.03;45.58;95624.72;5022393;28;20176;-80
2021/03/29 03:51:29;;;;;;;3.37;2.40;;;1.50;99.90;;;2.09;45.36;95631.88;5013260;28;20659;-80
2021/03/29 03:53:55;;;;;;;3.37;2.27;;;1.60;99.90;;;1.91;45.88;95621.69;5042312;28;20202;-80
2021/03/29 03:56:22;;;;;;;3.00;2.27;;;1.50;99.90;;;1.93;45.74;95617.09;5043180;28;20279;-80
2021/03/29 03:58:54;;;;;;;2.53;2.00;;;1.50;99.90;;;1.90;45.64;95612.19;5060014;28;20205;-80
2021/03/29 04:01:21;;;;;;;4.03;2.37;;;1.50;99.90;;;2.00;46.04;95631.09;5042588;28;20199;-80
2021/03/29 04:03:53;;;;;;;2.43;2.00;;;1.50;99.90;;;1.95;46.03;95629.97;5054811;28;20176;-80
2021/03/29 04:06:20;;;;;;;4.90;2.10;;;1.50;99.90;;;1.98;45.94;95629.66;5021894;28;20191;-80
2021/03/29 04:08:55;;;;;;;3.77;2.37;;;1.60;99.90;;;1.97;46.10;95613.16;5025373;28;20192;-80
2021/03/29 04:11:31;;;;;;;4.97;2.73;;;1.50;99.90;;;1.93;46.34;95632.78;5059599;28;20176;-80
2021/03/29 04:13:58;;;;;;;3.13;2.33;;;1.40;99.90;;;1.90;45.83;95629.66;5075718;28;20180;-80
2021/03/29 04:16:53;;;;;;;3.97;2.60;;;1.40;99.90;;;1.86;46.09;95634.41;5034922;28;20272;-80
2021/03/29 04:19:34;;;;;;;3.93;2.70;;;1.30;99.90;;;1.95;46.22;95641.25;4974257;28;20224;-80
2021/03/29 04:22:32;;;;;;;3.40;2.40;;;1.30;99.90;;;1.93;46.40;95638.00;4978694;28;20331;-80
2021/03/29 04:25:06;;;;;;;3.87;2.47;;;1.30;99.90;;;1.78;46.64;95617.97;4953711;28;20284;-80
2021/03/29 04:27:58;;;;;;;3.30;2.47;;;1.20;99.90;;;1.85;46.98;95642.41;4934067;29;20656;-80
2021/03/29 04:30:31;;;;;;;8.40;2.73;;;1.20;99.90;;;1.74;46.48;95641.00;4920778;29;20188;-80
2021/03/29 04:32:58;;;;;;;4.77;2.30;;;1.20;99.90;;;1.62;46.77;95644.09;4936948;29;20196;-81
2021/03/29 04:35:30;;;;;;;2.10;1.90;;;1.10;99.90;;;1.59;46.37;95650.50;4936955;29;20192;-80
2021/03/29 04:37:57;;;;;;;8.23;2.30;;;1.10;99.90;;;1.62;46.82;95636.28;4938041;29;20637;-81
2021/03/29 04:40:47;;;;;;;8.77;2.40;;;1.20;99.90;;;1.68;47.04;95646.88;4960191;28;20227;-81
2021/03/29 04:43:34;;;;;;;3.27;1.90;;;1.20;99.90;;;1.64;46.51;95648.22;4925725;29;20202;-84
2021/03/29 04:46:10;;;;;;;2.93;2.23;;;1.30;99.90;;;1.63;47.11;95650.97;4949928;29;20294;-79
2021/03/29 04:48:36;;;;;;;4.17;2.53;;;1.10;99.90;;;1.51;46.91;95640.06;4939722;29;20222;-84
2021/03/29 04:51:02;;;;;;;4.40;2.37;;;1.10;99.90;;;1.69;46.93;95642.47;4924464;29;20244;-81
2021/03/29 04:53:28;;;;;;;3.80;2.33;;;1.20;99.90;;;1.57;47.19;95646.41;4930045;29;20242;-79
2021/03/29 04:55:53;;;;;;;4.57;2.90;;;1.20;99.90;;;1.60;47.01;95662.56;4962923;28;20194;-82
2021/03/29 04:58:30;;;;;;;3.67;2.40;;;1.10;99.90;;;1.74;47.52;95654.06;5002595;28;20856;-81
2021/03/29 05:01:00;;;;;;;2.83;2.10;;;1.20;99.90;;;1.60;47.33;95641.69;5061766;28;20560;-80
2021/03/29 05:03:26;;;;;;;4.30;3.03;;;1.00;99.90;;;1.45;47.52;95654.59;5054524;28;20544;-80
2021/03/29 05:06:01;;;;;;;2.80;2.00;;;0.90;99.90;;;1.42;47.18;95656.72;5042105;28;20223;-80
2021/03/29 05:08:27;;;;;;;3.53;2.17;;;1.00;99.90;;;1.46;46.99;95673.69;5041816;28;20182;-80
2021/03/29 05:11:44;;;;;;;3.87;2.60;;;0.90;99.90;;;1.53;47.57;95672.88;5042281;28;20180;-80
2021/03/29 05:14:10;;;;;;;3.43;2.60;;;0.90;99.90;;;1.52;47.74;95667.81;4995880;28;20631;-80
2021/03/29 05:16:37;;;;;;;8.63;4.10;;;1.00;99.90;;;1.41;47.16;95650.66;4980977;28;20213;-81
2021/03/29 05:19:03;;;;;;;7.73;3.20;;;0.90;99.90;;;1.48;47.66;95661.28;4949144;28;20212;-81
2021/03/29 05:22:02;;;;;;;7.60;3.70;;;0.90;99.90;;;1.55;47.58;95662.25;4944962;28;20206;-80
2021/03/29 05:24:42;;;;;;;5.43;3.00;;;0.90;99.90;;;1.55;47.12;95662.25;4911548;29;20209;-80
2021/03/29 05:27:10;;;;;;;6.03;3.63;;;1.00;99.90;;;1.61;47.51;95666.00;4885418;29;20179;-78
2021/03/29 05:29:43;;;;;;;6.67;3.40;;;1.20;99.90;;;1.67;47.66;95665.34;4909839;29;20715;-81
2021/03/29 05:32:28;;;;;;;7.07;3.27;;;1.10;99.90;;;1.64;47.50;95671.72;4891616;29;20181;-81
2021/03/29 05:35:03;;;;;;;4.90;3.17;;;1.10;99.90;;;1.86;47.96;95667.56;4899513;29;20220;-82
2021/03/29 05:37:42;;;;;;;6.90;3.80;;;1.20;99.90;;;1.89;48.12;95668.06;4905764;29;20203;-83
2021/03/29 05:40:23;;;;;;;5.95;3.25;;;1.20;99.90;;;1.99;47.69;95673.09;4890714;29;20521;-87
2021/03/29 05:43:11;;;;;;;6.63;3.10;;;1.40;99.90;;;2.05;47.99;95670.63;4894486;29;20179;-81
2021/03/29 05:45:50;;;;;;;4.97;2.90;;;1.40;99.90;;;2.17;47.86;95676.31;4914314;29;20235;-81
2021/03/29 05:48:27;;;;;;;7.87;3.17;;;1.50;99.90;;;2.27;48.31;95676.13;4928818;28;20618;-81
2021/03/29 05:51:09;;;;;;;8.90;3.20;;;1.60;99.90;;;2.48;48.80;95679.78;4957170;28;20203;-82
2021/03/29 05:53:35;;;;;;;6.43;3.87;;;1.80;99.90;;;2.52;48.45;95685.47;4956477;28;20212;-79
2021/03/29 05:56:03;;;;;;;7.00;3.20;;;1.90;99.90;;;2.68;47.88;95695.88;4949705;28;20187;-81
2021/03/29 05:58:38;;;;;;;6.20;3.20;;;1.90;99.90;;;2.73;47.91;95684.88;4962661;28;20233;-81
2021/03/29 06:01:11;;;;;;;8.33;3.10;;;2.00;99.90;;;2.75;48.95;95691.59;4992215;28;20189;-81
2021/03/29 06:03:44;;;;;;;6.80;3.37;;;2.00;99.90;;;2.92;48.52;95695.72;5049961;28;20200;-80
2021/03/29 06:06:22;;;;;;;11.03;3.10;;;2.30;99.90;;;3.04;48.77;95704.00;5029387;28;21015;-80
2021/03/29 06:08:52;;;;;;;4.87;3.10;;;2.40;99.90;;;3.14;48.25;95698.53;5010772;28;20178;-80
2021/03/29 06:11:28;;;;;;;5.50;3.10;;;2.50;99.90;;;3.34;48.18;95713.63;4986190;28;20238;-79
2021/03/29 06:14:23;;;;;;;8.00;3.37;;;2.70;99.90;;;3.48;48.89;95705.00;5000286;28;20209;-80
2021/03/29 06:17:20;;;;;;;4.70;2.80;;;2.80;99.90;;;3.64;48.91;95706.66;4983345;28;20189;-80
2021/03/29 06:19:57;;;;;;;3.70;2.60;;;2.90;99.90;;;3.80;48.67;95709.13;4990648;28;20225;-80
2021/03/29 06:22:40;;;;;;;5.47;2.80;;;3.10;99.90;;;3.98;49.04;95698.31;4994953;28;20174;-80
2021/03/29 06:25:20;;;;;;;6.50;2.70;;;3.30;99.90;;;4.10;49.19;95704.75;5011313;28;20889;-80
2021/03/29 06:27:59;;;;;;;5.40;2.70;;;3.40;99.90;;;4.26;48.94;95706.41;4997188;28;20665;-80
2021/03/29 06:30:38;;;;;;;6.67;2.80;;;3.70;99.90;;;4.47;49.43;95706.47;4978932;28;20761;-80
2021/03/29 06:33:17;;;;;;;4.17;2.80;;;3.80;99.90;;;4.75;49.91;95710.06;5004020;28;20190;-80
2021/03/29 06:35:56;;;;;;;4.97;2.57;;;4.00;99.90;;;5.07;49.78;95707.00;5012028;28;20187;-80
2021/03/29 06:38:33;;;;;;;6.33;2.57;;;4.40;99.90;;;5.52;49.24;95708.47;5008203;28;20179;-80
2021/03/29 06:41:03;;;;;;;9.17;3.10;;;4.70;99.90;;;6.36;49.97;95742.75;5029095;28;20201;-81
2021/03/29 06:43:47;;;;;;;6.13;2.47;;;5.30;99.90;;;9.13;49.29;95798.47;5029470;28;20282;-80
2021/03/29 06:46:35;;;;;;;2.90;1.90;;;7.40;99.90;;;12.57;49.85;95807.22;5010059;28;20247;-80
2021/03/29 06:49:05;;;;;;;3.83;1.70;;;10.90;99.90;;;15.44;50.09;95792.34;5045046;28;20916;-81
2021/03/29 06:51:42;;;;;;;3.67;1.70;;;14.20;99.90;;;18.13;49.94;95784.28;5029563;28;20191;-81
2021/03/29 06:54:10;;;;;;;3.70;1.90;;;17.20;92.20;;;17.96;49.84;95697.06;5037841;28;20261;-81
2021/03/29 06:56:47;;;;;;;2.50;1.67;;;18.50;83.30;;;20.94;49.50;95746.03;5023470;28;20212;-79
2021/03/29 06:59:39;;;;;;;3.23;1.73;;;21.10;72.50;;;22.68;49.40;95725.50;5037242;28;20232;-80
2021/03/29 07:02:10;;;;;;;4.50;1.30;;;23.30;62.50;;;23.44;49.25;95713.34;5034842;28;20198;-80
2021/03/29 07:04:38;;;;;;;1.90;1.33;;;24.30;55.40;;;24.27;48.46;95694.00;5040280;28;20202;-80
2021/03/29 07:07:22;;;;;;;3.70;1.77;;;25.40;52.40;;;24.34;48.50;95748.56;5047484;28;20186;-81
2021/03/29 07:09:58;;;;;;;3.93;1.90;;;26.10;50.40;;;25.35;47.86;95729.00;5037983;28;20188;-80
2021/03/29 07:12:42;;;;;;;2.27;1.40;;;27.20;48.80;;;26.00;47.53;95808.72;5023958;28;20674;-81
2021/03/29 07:15:12;;;;;;;5.03;1.60;;;27.60;48.50;;;27.42;47.07;95696.19;5036910;28;20197;-84
2021/03/29 07:17:43;;;;;;;5.83;1.80;;;29.20;46.90;;;28.15;46.98;95664.06;5056685;28;20171;-80
2021/03/29 07:20:24;;;;;;;3.30;1.50;;;30.20;44.50;;;27.77;46.28;95704.25;5057641;28;20270;-80
2021/03/29 07:23:20;;;;;;;1.97;1.53;;;30.50;43.20;;;27.96;45.91;95775.47;5044738;28;20188;-80
2021/03/29 07:25:51;;;;;;;3.10;1.50;;;30.80;43.00;;;27.75;45.82;95649.25;5015338;28;20208;-80
2021/03/29 07:28:23;;;;;;;3.30;1.30;;;30.80;42.80;;;27.50;45.28;95675.50;4985950;28;20201;-80
2021/03/29 07:30:51;;;;;;;3.03;1.30;;;30.60;43.20;;;27.80;44.85;95668.13;4969765;28;20306;-85
2021/03/29 07:33:23;;;;;;;2.83;1.30;;;30.90;42.60;;;28.10;44.47;95704.38;4987288;28;20181;-81
2021/03/29 07:36:10;;;;;;;2.07;1.57;;;31.00;42.70;;;29.33;43.74;95845.56;4953623;28;20170;-81
2021/03/29 07:39:03;;;;;;;1.57;1.23;;;31.80;42.10;;;30.58;43.56;95780.19;4992786;28;20237;-80
2021/03/29 07:41:37;;;;;;;2.37;1.30;;;33.20;40.30;;;31.47;43.27;95737.72;4969022;28;20767;-80
2021/03/29 07:44:23;;;;;;;2.80;1.30;;;34.10;39.30;;;32.19;42.81;95790.53;4985394;28;20213;-81
2021/03/29 07:46:57;;;;;;;1.87;1.30;;;34.80;37.40;;;32.18;42.28;95708.53;5011914;28;20188;-82
2021/03/29 07:49:44;;;;;;;3.40;1.40;;;35.20;36.70;;;31.68;41.93;95762.19;5013124;28;20323;-81
2021/03/29 07:52:34;;;;;;;2.22;1.48;;;35.10;36.50;;;32.21;41.13;95757.22;5004225;28;20205;-83
2021/03/29 07:55:21;;;;;;;3.33;1.50;;;35.60;36.20;;;33.25;40.65;95779.16;4996362;28;20200;-81
2021/03/29 07:57:49;;;;;;;8.18;5.68;;;36.40;36.00;;;33.73;39.99;95658.59;4954433;28;20188;-84
2021/03/29 08:00:24;;;;;;;3.05;1.50;;;37.10;34.90;;;34.07;40.21;95726.38;5001254;28;20209;-80
2021/03/29 08:02:59;;;;;;;3.08;1.83;;;37.60;34.60;;;33.66;39.54;95642.78;5028031;28;20597;-81
2021/03/29 08:05:55;;;;;;;6.38;1.88;;;37.80;34.00;;;34.79;39.05;95793.19;5054065;28;20183;-81
2021/03/29 08:08:27;;;;;;;3.92;1.67;;;38.40;34.00;;;35.16;38.02;95729.88;5039224;28;20171;-80
2021/03/29 08:11:55;;;;;;;3.28;1.83;;;39.00;34.10;;;35.86;37.84;95825.66;5038492;28;20164;-81
2021/03/29 08:14:40;;;;;;;3.05;1.70;;;39.50;33.70;;;36.24;37.25;95805.09;4974474;28;20220;-81
2021/03/29 08:17:46;;;;;;;2.28;1.67;;;40.20;33.00;;;37.07;36.54;95783.19;4974878;28;20190;-88
2021/03/29 08:20:19;;;;;;;3.63;1.92;;;40.90;32.90;;;37.24;36.21;95680.88;4945901;28;20765;-79
2021/03/29 08:23:23;;;;;;;2.53;1.65;;;41.30;32.70;;;36.25;35.90;95724.63;4973172;28;20186;-79
2021/03/29 08:26:13;;;;;;;2.90;1.75;;;40.90;33.20;;;37.58;35.13;95830.84;4973391;28;20634;-79
2021/03/29 08:29:27;;;;;;;2.40;1.50;;;41.60;32.50;;;38.00;34.84;95785.88;4973158;28;20214;-79
2021/03/29 08:32:08;;;;;;;2.58;2.00;;;42.40;31.90;;;37.76;34.67;95686.91;4974112;28;20232;-79
2021/03/29 08:35:04;;;;;;;3.13;1.75;;;42.40;31.70;;;36.62;33.84;95762.38;4964307;28;20226;-79
2021/03/29 08:37:40;;;;;;;2.42;1.40;;;41.50;32.20;;;37.05;33.51;95710.84;4957013;28;20203;-79
2021/03/29 08:40:29;;;;;;;2.22;1.52;;;41.80;31.70;;;37.81;33.20;95747.44;4974264;28;20186;-79
2021/03/29 08:43:10;;;;;;;3.22;1.90;;;42.40;32.00;;;37.04;32.58;95701.00;4971589;28;20430;-79
2021/03/29 08:46:06;;;;;;;2.30;2.10;;;42.80;31.80;;;38.19;32.21;95829.00;5043275;28;20212;-78
2021/03/29 08:48:32;;;;;;;2.72;1.70;;;42.90;31.40;;;37.95;31.75;95697.59;4996234;28;20221;-80
2021/03/29 08:50:58;;;;;;;4.55;1.73;;;42.80;31.60;;;38.61;31.27;95676.53;4984480;28;20213;-80
2021/03/29 08:53:25;;;;;;;2.00;1.80;;;43.40;30.50;;;37.84;30.80;95667.09;4962808;28;20228;-79
2021/03/29 08:55:51;;;;;;;2.65;1.50;;;43.10;30.50;;;38.11;30.62;95728.47;4987133;28;20197;-79
2021/03/29 08:58:17;;;;;;;5.07;1.60;;;43.10;30.30;;;38.97;30.14;95704.94;5010944;28;20644;-79
2021/03/29 09:00:44;;;;;;;2.45;1.80;;;43.60;30.20;;;38.88;29.51;95688.72;4988335;28;20238;-79
2021/03/29 09:03:23;;;;;;;2.88;1.65;;;43.80;30.00;;;38.77;29.54;95723.22;4983434;28;20197;-79
2021/03/29 09:05:52;;;;;;;2.70;1.80;;;44.00;29.90;;;39.24;29.62;95678.25;4983385;28;20197;-80
2021/03/29 09:08:18;;;;;;;3.63;1.60;;;44.30;29.80;;;38.53;28.91;95615.94;4992284;28;20276;-80
2021/03/29 09:10:45;;;;;;;1.85;1.70;;;44.00;29.90;;;38.95;28.96;95730.31;4972886;28;20186;-80
2021/03/29 09:13:14;;;;;;;2.78;1.85;;;44.00;29.70;;;38.68;28.65;95657.09;4974612;28;20202;-80
2021/03/29 09:15:45;;;;;;;3.90;1.33;;;44.20;29.60;;;37.67;28.30;95553.59;4959963;28;20759;-80
2021/03/29 09:18:22;;;;;;;7.85;2.10;;;43.40;30.00;;;37.84;28.33;95727.25;4977290;28;20253;-81
2021/03/29 09:20:50;;;;;;;4.28;1.30;;;43.20;29.90;;;37.93;27.65;95681.38;4959489;28;20396;-77
2021/03/29 09:23:28;;;;;;;4.53;1.75;;;43.00;29.80;;;37.99;27.00;95656.84;4976603;28;20707;-78
2021/03/29 09:25:59;;;;;;;2.50;1.40;;;43.00;29.50;;;38.61;27.33;95686.81;5031206;28;20279;-79
2021/03/29 09:30:59;;;;;;;1.27;1.10;;;43.80;29.60;;;38.62;25.88;95725.22;5052433;28;20187;-78
2021/03/29 09:33:26;;;;;;;1.98;1.40;;;43.80;29.40;;;38.35;26.23;95694.38;5036173;28;20602;-79
2021/03/29 09:35:54;;;;;;;3.10;1.60;;;43.70;29.80;;;38.68;25.83;95676.50;5035965;28;20641;-81
2021/03/29 09:38:42;;;;;;;4.03;1.80;;;44.00;30.00;;;36.91;26.07;95741.97;5036399;28;20279;-77
2021/03/29 09:41:19;;;;;;;3.67;1.70;;;42.30;33.30;;;36.03;25.51;95773.34;5033653;28;20199;-79
2021/03/29 09:43:48;;;;;;;3.42;1.80;;;40.90;33.70;;;35.99;25.54;95689.69;5053948;28;20280;-78
2021/03/29 09:46:27;;;;;;;3.67;1.67;;;40.50;34.40;;;35.19;25.63;95725.59;5055784;28;20248;-80
2021/03/29 09:49:14;;;;;;;4.57;1.60;;;39.80;35.00;;;35.59;25.13;95766.22;5016987;28;20238;-80
2021/03/29 09:51:47;;;;;;;4.13;1.90;;;39.70;35.50;;;36.20;25.52;95691.06;5026624;28;20198;-91
2021/03/29 09:54:26;;;;;;;2.10;1.85;;;40.00;33.90;;;35.55;25.25;95818.59;5054383;28;20588;-82
2021/03/29 09:56:56;;;;;;;2.00;1.65;;;39.60;34.50;;;33.38;25.20;95658.78;5050899;28;20202;-80
2021/03/29 09:59:35;;;;;;;1.83;1.73;;;37.70;34.80;;;32.51;24.76;95739.06;5019655;28;20203;-82
2021/03/29 10:02:26;;;;;;;4.43;1.85;;;36.00;35.90;;;34.84;24.94;95819.66;5051176;28;20202;-85
2021/03/29 10:05:10;;;;;;;2.80;2.22;;;37.00;36.60;;;35.62;24.50;95758.00;5020832;28;20704;-81
2021/03/29 10:07:57;;;;;;;3.67;1.67;;;38.40;35.10;;;36.54;24.55;95725.59;5035367;28;20184;-80
2021/03/29 10:10:32;;;;;;;4.00;1.80;;;39.40;33.80;;;37.88;24.00;95772.34;5040065;28;20234;-80
2021/03/29 10:13:38;;;;;;;3.45;1.90;;;40.70;32.80;;;37.88;23.68;95817.47;5039235;28;20178;-81
2021/03/29 10:16:27;;;;;;;2.20;1.80;;;41.80;32.80;;;37.31;23.80;95741.75;5039560;28;20219;-82
2021/03/29 10:19:20;;;;;;;3.75;1.58;;;41.50;32.80;;;35.96;23.92;95759.47;5023498;28;20172;-81
2021/03/29 10:22:16;;;;;;;4.18;1.70;;;40.00;33.00;;;38.69;23.34;95858.34;5037235;28;20185;-81
2021/03/29 10:25:22;;;;;;;2.25;1.50;;;41.80;32.80;;;39.58;23.13;95772.88;5043915;28;20584;-82
2021/03/29 10:28:04;;;;;;;3.92;1.92;;;42.80;32.00;;;39.27;22.85;95787.69;5059171;28;20271;-81
2021/03/29 10:30:36;;;;;;;3.00;1.80;;;42.90;32.40;;;38.62;23.23;95655.13;5044420;28;20210;-81
2021/03/29 10:33:05;;;;;;;3.33;1.73;;;42.60;32.10;;;38.30;23.31;95649.66;5053111;28;20240;-81
2021/03/29 10:35:44;;;;;;;2.70;1.77;;;42.20;32.30;;;37.18;22.70;95707.34;5042974;28;20647;-91
2021/03/29 10:38:17;;;;;;;3.25;2.00;;;41.30;32.40;;;37.85;22.48;95750.97;5041437;28;20655;-82
2021/03/29 10:40:45;;;;;;;1.77;1.50;;;41.10;33.70;;;37.20;22.51;95679.28;5013984;28;20168;-81
2021/03/29 10:43:13;;;;;;;2.90;1.90;;;40.70;33.30;;;37.23;22.12;95601.84;5042551;28;20187;-81
2021/03/29 10:45:39;;;;;;;3.25;1.90;;;40.90;33.20;;;38.48;22.13;95722.53;5043192;28;20261;-85
2021/03/29 10:48:05;;;;;;;2.88;1.90;;;41.50;33.40;;;39.38;22.34;95606.00;5029782;28;20616;-81
2021/03/29 10:50:32;;;;;;;4.03;1.83;;;42.90;32.50;;;39.39;22.05;95678.94;5040625;28;20199;-79
2021/03/29 10:52:59;;;;;;;2.60;1.70;;;43.40;32.00;;;39.33;22.01;95705.56;5016942;28;20338;-80
2021/03/29 10:55:25;;;;;;;3.40;1.85;;;42.40;32.90;;;38.71;22.08;95666.59;5034660;28;20196;-81
2021/03/29 10:57:51;;;;;;;5.78;1.67;;;42.10;32.30;;;40.09;21.52;95702.66;5023225;28;20276;-81
2021/03/29 11:00:20;;;;;;;3.42;2.05;;;43.10;31.60;;;38.93;21.64;95607.06;5033486;28;20223;-87
2021/03/29 11:02:46;;;;;;;2.50;1.90;;;42.60;31.80;;;38.58;21.22;95696.75;5048334;28;20190;-82
2021/03/29 11:05:18;;;;;;;2.63;1.95;;;42.60;32.40;;;39.23;21.24;95740.50;5057817;28;20192;-81
2021/03/29 11:07:53;;;;;;;2.35;1.67;;;42.60;31.70;;;38.34;21.50;95586.69;5030318;28;20251;-81
2021/03/29 11:10:20;;;;;;;3.13;1.95;;;42.60;31.90;;;38.58;20.91;95668.22;5043186;28;20210;-82
2021/03/29 11:12:49;;;;;;;4.35;1.88;;;42.10;32.10;;;38.14;20.76;95619.63;5043219;28;20203;-93